Time;durP1;ratioP1;P1;durP2;ratioP2;P2;SDS_P1;SDS_P2;PMS_P1;PMS_P2;Temp;Humidity;BMP_temperature;BMP_pressure;BME280_temperature;BME280_humidity;BME280_pressure;Samples;Min_cycle;Max_cycle;Signal;HPM_P1;HPM_P2
2023/03/09 00:02:20;;;;;;;5.8;2.6;;;;;;;;;;;;;-71
2023/03/09 00:03:58;;;;;;;;;;;;;;;1.39;87.42188;99408.1;;;;-71
2023/03/09 00:08:59;;;;;;;;;;;;;;;1.37;87.4082;99417.24;;;;-71
2023/03/09 00:13:58;;;;;;;;;;;;;;;1.37;87.39453;99415.58;;;;-71
2023/03/09 00:19:00;;;;;;;;;;;;;;;1.36;87.48145;99413.48;;;;-70
2023/03/09 00:24:01;;;;;;;;;;;;;;;1.36;87.58984;99425.45;;;;-70
2023/03/09 00:28:58;;;;;;;;;;;;;;;1.35;87.51367;99406.36;;;;-70
2023/03/09 00:32:20;;;;;;;5.3;2.4;;;;;;;;;;;;;-71
2023/03/09 00:33:58;;;;;;;;;;;;;;;1.32;87.60156;99391.11;;;;-71
2023/03/09 00:38:59;;;;;;;;;;;;;;;1.28;87.63965;99395.96;;;;-71
2023/03/09 00:43:58;;;;;;;;;;;;;;;1.23;87.63867;99408.23;;;;-71
2023/03/09 00:48:58;;;;;;;;;;;;;;;1.2;87.73047;99418.5;;;;-71
2023/03/09 00:54:01;;;;;;;;;;;;;;;1.21;87.59082;99423.58;;;;-70
2023/03/09 00:58:58;;;;;;;;;;;;;;;1.19;87.70508;99435.67;;;;-71
2023/03/09 01:02:19;;;;;;;6.3;2.7;;;;;;;;;;;;;-71
2023/03/09 01:03:58;;;;;;;;;;;;;;;1.2;87.37402;99449.16;;;;-71
2023/03/09 01:08:58;;;;;;;;;;;;;;;1.21;87.5166;99465.56;;;;-70
2023/03/09 01:13:58;;;;;;;;;;;;;;;1.19;87.56543;99459.67;;;;-71
2023/03/09 01:18:58;;;;;;;;;;;;;;;1.19;87.65137;99461.19;;;;-71
2023/03/09 01:23:58;;;;;;;;;;;;;;;1.21;87.55957;99454.89;;;;-71
2023/03/09 01:28:58;;;;;;;;;;;;;;;1.21;87.54688;99461.13;;;;-71
2023/03/09 01:32:19;;;;;;;6.7;2.2;;;;;;;;;;;;;-71
2023/03/09 01:34:00;;;;;;;;;;;;;;;1.2;87.54492;99478.19;;;;-71
2023/03/09 01:38:58;;;;;;;;;;;;;;;1.2;87.37207;99478.73;;;;-71
2023/03/09 01:43:58;;;;;;;;;;;;;;;1.2;87.30957;99471.27;;;;-71
2023/03/09 01:49:00;;;;;;;;;;;;;;;1.19;87.54297;99468.34;;;;-70
2023/03/09 01:53:59;;;;;;;;;;;;;;;1.18;87.44629;99492.2;;;;-70
2023/03/09 01:58:59;;;;;;;;;;;;;;;1.16;87.54883;99491.64;;;;-71
2023/03/09 02:02:19;;;;;;;6.4;2.2;;;;;;;;;;;;;-71
2023/03/09 02:04:03;;;;;;;;;;;;;;;1.17;87.50781;99498.59;;;;-69
2023/03/09 02:09:01;;;;;;;;;;;;;;;1.16;87.36523;99498.31;;;;-71
2023/03/09 02:13:58;;;;;;;;;;;;;;;1.16;87.45117;99499.06;;;;-71
2023/03/09 02:18:58;;;;;;;;;;;;;;;1.15;87.36328;99495.16;;;;-71
2023/03/09 02:24:01;;;;;;;;;;;;;;;1.14;87.3291;99485.81;;;;-70
2023/03/09 02:28:58;;;;;;;;;;;;;;;1.12;87.45508;99497.52;;;;-71
2023/03/09 02:32:18;;;;;;;5;2.1;;;;;;;;;;;;;-71
2023/03/09 02:33:58;;;;;;;;;;;;;;;1.1;87.40625;99512.59;;;;-70
2023/03/09 02:38:59;;;;;;;;;;;;;;;1.07;87.61816;99495.65;;;;-70
2023/03/09 02:44:00;;;;;;;;;;;;;;;1.07;87.44336;99505.88;;;;-70
2023/03/09 02:48:59;;;;;;;;;;;;;;;1.07;87.40039;99525.53;;;;-70
2023/03/09 02:53:58;;;;;;;;;;;;;;;1.06;87.56055;99538.78;;;;-71
2023/03/09 02:59:01;;;;;;;;;;;;;;;1.07;87.71582;99543.27;;;;-71
2023/03/09 03:02:18;;;;;;;4.6;1.9;;;;;;;;;;;;;-71
2023/03/09 03:03:58;;;;;;;;;;;;;;;1.06;87.63574;99547.39;;;;-71
2023/03/09 03:08:58;;;;;;;;;;;;;;;1.08;87.5;99531.02;;;;-70
2023/03/09 03:13:59;;;;;;;;;;;;;;;1.07;87.41113;99530.66;;;;-71
2023/03/09 03:18:58;;;;;;;;;;;;;;;1.07;87.69238;99538.78;;;;-71
2023/03/09 03:23:58;;;;;;;;;;;;;;;1.06;87.50879;99547.54;;;;-71
2023/03/09 03:28:58;;;;;;;;;;;;;;;1.06;87.54102;99536.97;;;;-71
2023/03/09 03:32:17;;;;;;;4.3;2.1;;;;;;;;;;;;;-71
2023/03/09 03:33:58;;;;;;;;;;;;;;;1.06;87.51758;99530.81;;;;-71
2023/03/09 03:38:58;;;;;;;;;;;;;;;1.06;87.64648;99506.92;;;;-71
2023/03/09 03:43:58;;;;;;;;;;;;;;;1.05;87.40723;99513.58;;;;-71
2023/03/09 03:48:58;;;;;;;;;;;;;;;1;87.75488;99534.77;;;;-72
2023/03/09 03:53:58;;;;;;;;;;;;;;;0.97;87.74707;99561.33;;;;-70
2023/03/09 03:58:58;;;;;;;;;;;;;;;0.93;87.61035;99561.88;;;;-71
2023/03/09 04:02:16;;;;;;;5.1;2.2;;;;;;;;;;;;;-70
2023/03/09 04:03:58;;;;;;;;;;;;;;;0.92;87.76855;99566.92;;;;-70
2023/03/09 04:08:58;;;;;;;;;;;;;;;0.89;87.83984;99592.9;;;;-71
2023/03/09 04:13:58;;;;;;;;;;;;;;;0.91;87.61719;99607.26;;;;-71
2023/03/09 04:18:58;;;;;;;;;;;;;;;0.9;87.82031;99612.58;;;;-71
2023/03/09 04:23:58;;;;;;;;;;;;;;;0.88;87.69824;99609.58;;;;-70
2023/03/09 04:29:00;;;;;;;;;;;;;;;0.89;87.7627;99615.44;;;;-70
2023/03/09 04:32:16;;;;;;;5.8;2.9;;;;;;;;;;;;;-70
2023/03/09 04:33:58;;;;;;;;;;;;;;;0.86;87.79102;99620.42;;;;-71
2023/03/09 04:39:01;;;;;;;;;;;;;;;0.86;87.78027;99627.02;;;;-71
2023/03/09 04:43:58;;;;;;;;;;;;;;;0.87;87.86719;99626.15;;;;-73
2023/03/09 04:49:01;;;;;;;;;;;;;;;0.85;87.75488;99630.2;;;;-71
2023/03/09 04:53:58;;;;;;;;;;;;;;;0.85;88.10059;99635.8;;;;-71
2023/03/09 04:58:59;;;;;;;;;;;;;;;0.85;87.76563;99624.52;;;;-70
2023/03/09 05:02:15;;;;;;;6.4;3.2;;;;;;;;;;;;;-70
2023/03/09 05:03:58;;;;;;;;;;;;;;;0.83;87.88086;99638.78;;;;-70
2023/03/09 05:08:59;;;;;;;;;;;;;;;0.78;87.79395;99642.79;;;;-70
2023/03/09 05:13:58;;;;;;;;;;;;;;;0.75;87.92676;99662.99;;;;-70
2023/03/09 05:18:58;;;;;;;;;;;;;;;0.71;88.07227;99657.13;;;;-70
2023/03/09 05:23:58;;;;;;;;;;;;;;;0.65;87.91895;99659.57;;;;-71
2023/03/09 05:28:58;;;;;;;;;;;;;;;0.6;87.84375;99676.44;;;;-72
2023/03/09 05:32:16;;;;;;;7.6;3;;;;;;;;;;;;;-72
2023/03/09 05:33:59;;;;;;;;;;;;;;;0.58;88.03516;99676.16;;;;-71
2023/03/09 05:38:58;;;;;;;;;;;;;;;0.58;88.12207;99678.25;;;;-71
2023/03/09 05:43:58;;;;;;;;;;;;;;;0.6;88.32813;99691.59;;;;-70
2023/03/09 05:48:58;;;;;;;;;;;;;;;0.63;87.92773;99686.59;;;;-70
2023/03/09 05:53:58;;;;;;;;;;;;;;;0.64;88.31641;99685.17;;;;-71
2023/03/09 05:58:59;;;;;;;;;;;;;;;0.67;88.38672;99685.95;;;;-70
2023/03/09 06:02:14;;;;;;;8.4;3.3;;;;;;;;;;;;;-70
2023/03/09 06:03:58;;;;;;;;;;;;;;;0.71;88.05078;99707.01;;;;-70
2023/03/09 06:08:58;;;;;;;;;;;;;;;0.75;88.03711;99717.13;;;;-71
2023/03/09 06:14:01;;;;;;;;;;;;;;;0.78;88.08594;99722.56;;;;-71
2023/03/09 06:18:58;;;;;;;;;;;;;;;0.81;88.02832;99721.59;;;;-71
2023/03/09 06:24:03;;;;;;;;;;;;;;;0.82;88.25684;99726.53;;;;-71
2023/03/09 06:28:59;;;;;;;;;;;;;;;0.85;88.17578;99737.94;;;;-70
2023/03/09 06:32:15;;;;;;;8.9;4.2;;;;;;;;;;;;;-70
2023/03/09 06:34:00;;;;;;;;;;;;;;;0.87;88.37598;99750.63;;;;-70
2023/03/09 06:38:58;;;;;;;;;;;;;;;0.9;88.31641;99770.3;;;;-71
2023/03/09 06:43:58;;;;;;;;;;;;;;;0.95;88.06738;99770.69;;;;-71
2023/03/09 06:48:58;;;;;;;;;;;;;;;0.96;88.1123;99774.84;;;;-71
2023/03/09 06:54:00;;;;;;;;;;;;;;;0.99;87.94531;99786.77;;;;-72
2023/03/09 06:58:59;;;;;;;;;;;;;;;1;88.25098;99801.56;;;;-71
2023/03/09 07:02:14;;;;;;;10.7;4.2;;;;;;;;;;;;;-71
2023/03/09 07:03:59;;;;;;;;;;;;;;;1.04;87.97754;99800.31;;;;-71
2023/03/09 07:08:58;;;;;;;;;;;;;;;1.08;88.13867;99800.33;;;;-69
2023/03/09 07:14:01;;;;;;;;;;;;;;;1.11;88.13281;99805.88;;;;-70
2023/03/09 07:18:58;;;;;;;;;;;;;;;1.14;88.19336;99825.75;;;;-69
2023/03/09 07:23:58;;;;;;;;;;;;;;;1.19;88.10449;99836.23;;;;-71
2023/03/09 07:28:58;;;;;;;;;;;;;;;1.21;87.94824;99844.02;;;;-71
2023/03/09 07:32:12;;;;;;;10.2;4.8;;;;;;;;;;;;;-70
2023/03/09 07:33:58;;;;;;;;;;;;;;;1.26;87.9043;99850.13;;;;-71
2023/03/09 07:38:58;;;;;;;;;;;;;;;1.31;87.9043;99848.02;;;;-70
2023/03/09 07:43:58;;;;;;;;;;;;;;;1.35;87.88965;99848.98;;;;-71
2023/03/09 07:49:00;;;;;;;;;;;;;;;1.38;88.11328;99847.41;;;;-70
2023/03/09 07:53:58;;;;;;;;;;;;;;;1.43;87.99316;99868.72;;;;-71
2023/03/09 07:58:58;;;;;;;;;;;;;;;1.47;87.82813;99875.52;;;;-70
2023/03/09 08:02:12;;;;;;;11.5;5.1;;;;;;;;;;;;;-70
2023/03/09 08:03:58;;;;;;;;;;;;;;;1.52;88.12012;99891.61;;;;-70
2023/03/09 08:08:58;;;;;;;;;;;;;;;1.58;87.85059;99893.94;;;;-70
2023/03/09 08:13:58;;;;;;;;;;;;;;;1.71;87.99707;99900.63;;;;-71
2023/03/09 08:18:58;;;;;;;;;;;;;;;1.84;87.56738;99882.16;;;;-71
2023/03/09 08:23:58;;;;;;;;;;;;;;;1.9;87.51563;99888.12;;;;-71
2023/03/09 08:28:58;;;;;;;;;;;;;;;1.96;87.35547;99923.17;;;;-71
2023/03/09 08:32:13;;;;;;;12.7;5.3;;;;;;;;;;;;;-70
2023/03/09 08:33:58;;;;;;;;;;;;;;;2.03;87.32617;99934.17;;;;-72
2023/03/09 08:38:58;;;;;;;;;;;;;;;2.08;87.09961;99918.13;;;;-70
2023/03/09 08:44:00;;;;;;;;;;;;;;;2.14;86.7627;99931.41;;;;-70
2023/03/09 08:49:00;;;;;;;;;;;;;;;2.19;86.61133;99941.34;;;;-71
2023/03/09 08:53:58;;;;;;;;;;;;;;;2.24;86.30762;99942.27;;;;-71
2023/03/09 08:58:58;;;;;;;;;;;;;;;2.32;85.93457;99944.65;;;;-71
2023/03/09 09:02:14;;;;;;;12;5.4;;;;;;;;;;;;;-71
2023/03/09 09:03:58;;;;;;;;;;;;;;;2.37;85.80273;99950.19;;;;-70
2023/03/09 09:08:58;;;;;;;;;;;;;;;2.55;85.65234;99958.3;;;;-70
2023/03/09 09:13:58;;;;;;;;;;;;;;;2.72;85.6543;99958.7;;;;-70
2023/03/09 09:18:58;;;;;;;;;;;;;;;2.84;85.42871;99959.58;;;;-71
2023/03/09 09:23:58;;;;;;;;;;;;;;;2.93;85.38184;99951.63;;;;-71
2023/03/09 09:29:00;;;;;;;;;;;;;;;3.02;85.3125;99945.4;;;;-71
2023/03/09 09:32:11;;;;;;;12.9;4.9;;;;;;;;;;;;;-71
2023/03/09 09:33:58;;;;;;;;;;;;;;;3.19;85.17383;99938.05;;;;-71
2023/03/09 09:38:59;;;;;;;;;;;;;;;3.33;84.86523;99946.36;;;;-71
2023/03/09 09:44:00;;;;;;;;;;;;;;;3.47;84.9668;99947.47;;;;-70
2023/03/09 09:48:58;;;;;;;;;;;;;;;3.53;84.70898;99942.86;;;;-70
2023/03/09 09:54:03;;;;;;;;;;;;;;;3.58;84.44629;99959.59;;;;-70
2023/03/09 09:59:04;;;;;;;;;;;;;;;3.6;84.12402;99978.36;;;;-71
2023/03/09 10:02:17;;;;;;;10.3;5.1;;;;;;;;;;;;;-70
2023/03/09 10:04:01;;;;;;;;;;;;;;;3.64;84.48047;99980.68;;;;-71
2023/03/09 10:09:00;;;;;;;;;;;;;;;3.64;84.1748;99988.11;;;;-69
2023/03/09 10:14:02;;;;;;;;;;;;;;;3.63;83.94434;99982.53;;;;-70
2023/03/09 10:19:00;;;;;;;;;;;;;;;3.65;84.34082;99973.87;;;;-70
2023/03/09 10:23:59;;;;;;;;;;;;;;;3.68;84.22656;99961.16;;;;-71
2023/03/09 10:29:01;;;;;;;;;;;;;;;3.71;84.02539;99964.2;;;;-71
2023/03/09 10:32:10;;;;;;;11.9;5.2;;;;;;;;;;;;;-71
2023/03/09 10:34:03;;;;;;;;;;;;;;;3.74;83.82422;99953.14;;;;-70
2023/03/09 10:38:59;;;;;;;;;;;;;;;3.78;84.05078;99951.25;;;;-71
2023/03/09 10:44:00;;;;;;;;;;;;;;;3.82;83.77637;99959.94;;;;-71
2023/03/09 10:49:10;;;;;;;;;;;;;;;3.87;83.73242;99962.72;;;;-71
2023/03/09 10:53:59;;;;;;;;;;;;;;;3.95;83.86621;99960.88;;;;-69
2023/03/09 10:59:10;;;;;;;;;;;;;;;4.02;83.68457;99970.91;;;;-70
2023/03/09 11:02:19;;;;;;;11.6;6;;;;;;;;;;;;;-70
2023/03/09 11:04:00;;;;;;;;;;;;;;;4.11;83.66797;99976.7;;;;-70
2023/03/09 11:09:03;;;;;;;;;;;;;;;4.14;83.22852;99982.34;;;;-71
2023/03/09 11:13:59;;;;;;;;;;;;;;;4.14;82.97656;99982.47;;;;-72
2023/03/09 11:19:10;;;;;;;;;;;;;;;4.12;82.99512;99985.7;;;;-71
2023/03/09 11:24:04;;;;;;;;;;;;;;;4.11;83.13477;99986.28;;;;-71
2023/03/09 11:29:01;;;;;;;;;;;;;;;4.12;83.11426;99989.23;;;;-71
2023/03/09 11:32:11;;;;;;;13.1;6;;;;;;;;;;;;;-70
2023/03/09 11:33:59;;;;;;;;;;;;;;;4.15;83.4043;99992.87;;;;-71
2023/03/09 11:38:59;;;;;;;;;;;;;;;4.17;83.41895;99997.34;;;;-70
2023/03/09 11:44:00;;;;;;;;;;;;;;;4.18;83.50781;99997.61;;;;-71
2023/03/09 11:49:05;;;;;;;;;;;;;;;4.2;83.47852;99988.2;;;;-70
2023/03/09 11:54:06;;;;;;;;;;;;;;;4.27;84.08105;99986.83;;;;-70
2023/03/09 11:59:02;;;;;;;;;;;;;;;4.36;83.81543;99984.56;;;;-71
2023/03/09 12:02:15;;;;;;;11.5;5.8;;;;;;;;;;;;;-70
2023/03/09 12:04:01;;;;;;;;;;;;;;;4.43;83.59961;99976.97;;;;-70
2023/03/09 12:09:01;;;;;;;;;;;;;;;4.47;83.46582;99972.05;;;;-70
2023/03/09 12:14:01;;;;;;;;;;;;;;;4.48;83.62012;99973.5;;;;-71
2023/03/09 12:19:06;;;;;;;;;;;;;;;4.47;83.73828;99958.42;;;;-71
2023/03/09 12:23:58;;;;;;;;;;;;;;;4.45;83.85547;99951.44;;;;-70
2023/03/09 12:29:18;;;;;;;;;;;;;;;4.42;84.02246;99948.84;;;;-70
2023/03/09 12:32:35;;;;;;;13.9;6.5;;;;;;;;;;;;;-70
2023/03/09 12:34:09;;;;;;;;;;;;;;;4.42;84.11133;99944.31;;;;-70
2023/03/09 12:39:09;;;;;;;;;;;;;;;4.45;84.32324;99941.5;;;;-69
2023/03/09 12:44:01;;;;;;;;;;;;;;;4.53;84.44629;99938.55;;;;-70
2023/03/09 12:48:58;;;;;;;;;;;;;;;4.57;84.45508;99930.59;;;;-74
2023/03/09 12:54:05;;;;;;;;;;;;;;;4.53;84.54492;99915.61;;;;-71
2023/03/09 12:59:00;;;;;;;;;;;;;;;4.5;84.56152;99910.64;;;;-71
2023/03/09 13:02:24;;;;;;;12.7;6.3;;;;;;;;;;;;;-71
2023/03/09 13:04:08;;;;;;;;;;;;;;;4.46;84.49805;99907.23;;;;-71
2023/03/09 13:09:00;;;;;;;;;;;;;;;4.41;84.44727;99914.76;;;;-71
2023/03/09 13:13:58;;;;;;;;;;;;;;;4.38;84.47266;99911.94;;;;-71
2023/03/09 13:19:11;;;;;;;;;;;;;;;4.36;84.63086;99904.72;;;;-71
2023/03/09 13:23:59;;;;;;;;;;;;;;;4.33;85.11719;99900.31;;;;-70
2023/03/09 13:29:00;;;;;;;;;;;;;;;4.36;85.1748;99899.49;;;;-71
2023/03/09 13:32:19;;;;;;;12.7;6.2;;;;;;;;;;;;;-71
2023/03/09 13:33:59;;;;;;;;;;;;;;;4.34;85.2373;99894.41;;;;-71
2023/03/09 13:39:03;;;;;;;;;;;;;;;4.32;86.50684;99887.97;;;;-71
2023/03/09 13:44:02;;;;;;;;;;;;;;;4.26;86.2334;99886.86;;;;-71
2023/03/09 13:49:01;;;;;;;;;;;;;;;4.2;86.22168;99894.63;;;;-71
2023/03/09 13:53:58;;;;;;;;;;;;;;;4.15;86.96387;99901.11;;;;-71
2023/03/09 13:58:58;;;;;;;;;;;;;;;4.14;87.14648;99892.59;;;;-71
2023/03/09 14:02:14;;;;;;;13.1;6.3;;;;;;;;;;;;;-71
2023/03/09 14:03:59;;;;;;;;;;;;;;;4.14;86.91699;99882.5;;;;-72
2023/03/09 14:09:06;;;;;;;;;;;;;;;4.11;87.19434;99874.88;;;;-71
2023/03/09 14:14:03;;;;;;;;;;;;;;;4.1;87.46387;99870.92;;;;-72
2023/03/09 14:18:59;;;;;;;;;;;;;;;4.08;87.1123;99857.34;;;;-71
2023/03/09 14:24:00;;;;;;;;;;;;;;;4.06;87.59766;99864.2;;;;-71
2023/03/09 14:29:09;;;;;;;;;;;;;;;4.01;87.5;99856.7;;;;-71
2023/03/09 14:32:29;;;;;;;13.1;6;;;;;;;;;;;;;-70
2023/03/09 14:34:05;;;;;;;;;;;;;;;3.95;87.5;99833.92;;;;-72
2023/03/09 14:39:00;;;;;;;;;;;;;;;3.88;87.72363;99830.41;;;;-70
2023/03/09 14:43:58;;;;;;;;;;;;;;;3.83;87.9082;99826.17;;;;-71
2023/03/09 14:49:00;;;;;;;;;;;;;;;3.79;87.80371;99811.45;;;;-71
2023/03/09 14:54:02;;;;;;;;;;;;;;;3.76;87.91699;99807.17;;;;-73
2023/03/09 14:59:02;;;;;;;;;;;;;;;3.75;88.0332;99798.53;;;;-72
2023/03/09 15:02:10;;;;;;;14.6;6;;;;;;;;;;;;;-71
2023/03/09 15:03:59;;;;;;;;;;;;;;;3.71;88.125;99804.11;;;;-71
2023/03/09 15:08:58;;;;;;;;;;;;;;;3.68;88.19434;99802.56;;;;-70
2023/03/09 15:13:58;;;;;;;;;;;;;;;3.66;88.24316;99798.88;;;;-71
2023/03/09 15:18:59;;;;;;;;;;;;;;;3.61;88.375;99789.91;;;;-70
2023/03/09 15:23:58;;;;;;;;;;;;;;;3.58;88.39063;99786.67;;;;-71
2023/03/09 15:28:58;;;;;;;;;;;;;;;3.54;88.63281;99786.2;;;;-71
2023/03/09 15:32:09;;;;;;;12.2;5.5;;;;;;;;;;;;;-71
2023/03/09 15:33:59;;;;;;;;;;;;;;;3.51;88.71191;99786.17;;;;-71
2023/03/09 15:38:58;;;;;;;;;;;;;;;3.47;88.71582;99785.41;;;;-71
2023/03/09 15:43:59;;;;;;;;;;;;;;;3.41;88.88672;99775.55;;;;-71
2023/03/09 15:48:58;;;;;;;;;;;;;;;3.36;88.98633;99765.69;;;;-71
2023/03/09 15:53:58;;;;;;;;;;;;;;;3.32;89.25879;99761.75;;;;-72
2023/03/09 15:58:58;;;;;;;;;;;;;;;3.28;89.21875;99765.57;;;;-71
2023/03/09 16:02:08;;;;;;;11.2;5.4;;;;;;;;;;;;;-72
2023/03/09 16:03:58;;;;;;;;;;;;;;;3.23;89.36133;99780.58;;;;-72
2023/03/09 16:08:58;;;;;;;;;;;;;;;3.17;89.25098;99787.64;;;;-71
2023/03/09 16:13:58;;;;;;;;;;;;;;;3.11;89.29102;99789.04;;;;-72
2023/03/09 16:18:58;;;;;;;;;;;;;;;2.99;89.12793;99783;;;;-72
2023/03/09 16:23:58;;;;;;;;;;;;;;;2.93;89.24512;99767.25;;;;-72
2023/03/09 16:29:01;;;;;;;;;;;;;;;2.8;89.20703;99741.66;;;;-72
2023/03/09 16:32:08;;;;;;;11.3;5;;;;;;;;;;;;;-71
2023/03/09 16:33:59;;;;;;;;;;;;;;;2.69;89.19531;99735.59;;;;-73
2023/03/09 16:39:00;;;;;;;;;;;;;;;2.59;89.49609;99717.75;;;;-71
2023/03/09 16:43:58;;;;;;;;;;;;;;;2.48;89.5293;99706.14;;;;-73
2023/03/09 16:49:00;;;;;;;;;;;;;;;2.39;89.40234;99718.5;;;;-71
2023/03/09 16:53:58;;;;;;;;;;;;;;;2.29;89.5332;99725.17;;;;-72
2023/03/09 16:58:58;;;;;;;;;;;;;;;2.22;89.46387;99716.78;;;;-72
2023/03/09 17:02:12;;;;;;;9.1;4.1;;;;;;;;;;;;;-71
2023/03/09 17:03:58;;;;;;;;;;;;;;;2.15;89.70996;99712.69;;;;-73
2023/03/09 17:08:59;;;;;;;;;;;;;;;2.07;89.63867;99706.27;;;;-73
2023/03/09 17:13:58;;;;;;;;;;;;;;;2.02;89.81152;99703.47;;;;-73
2023/03/09 17:19:01;;;;;;;;;;;;;;;1.95;90.03613;99693.81;;;;-73
2023/03/09 17:24:00;;;;;;;;;;;;;;;1.9;90.08887;99686.95;;;;-73
2023/03/09 17:28:58;;;;;;;;;;;;;;;1.84;90;99665.16;;;;-73
2023/03/09 17:32:08;;;;;;;8.9;3.5;;;;;;;;;;;;;-73
2023/03/09 17:33:58;;;;;;;;;;;;;;;1.8;90.03809;99655.37;;;;-73
2023/03/09 17:38:58;;;;;;;;;;;;;;;1.76;90.40625;99657.98;;;;-72
2023/03/09 17:43:58;;;;;;;;;;;;;;;1.73;90.34668;99650.61;;;;-72
2023/03/09 17:49:01;;;;;;;;;;;;;;;1.7;90.52441;99650.5;;;;-74
2023/03/09 17:53:58;;;;;;;;;;;;;;;1.67;90.58203;99649.07;;;;-73
2023/03/09 17:58:58;;;;;;;;;;;;;;;1.67;90.22363;99634.03;;;;-73
2023/03/09 18:02:07;;;;;;;6.7;3.3;;;;;;;;;;;;;-72
2023/03/09 18:03:59;;;;;;;;;;;;;;;1.64;90.70508;99619.31;;;;-72
2023/03/09 18:08:59;;;;;;;;;;;;;;;1.63;90.5957;99600.53;;;;-73
2023/03/09 18:14:00;;;;;;;;;;;;;;;1.62;90.99316;99599.47;;;;-72
2023/03/09 18:18:58;;;;;;;;;;;;;;;1.62;91.11035;99599.45;;;;-73
2023/03/09 18:23:58;;;;;;;;;;;;;;;1.61;90.8291;99596.71;;;;-73
2023/03/09 18:28:58;;;;;;;;;;;;;;;1.61;90.96777;99589.09;;;;-73
2023/03/09 18:32:07;;;;;;;9.2;3.5;;;;;;;;;;;;;-70
2023/03/09 18:33:58;;;;;;;;;;;;;;;1.61;91.07617;99579.98;;;;-74
2023/03/09 18:38:58;;;;;;;;;;;;;;;1.59;90.89941;99600.38;;;;-74
2023/03/09 18:43:58;;;;;;;;;;;;;;;1.58;91.14551;99581.3;;;;-74
2023/03/09 18:49:00;;;;;;;;;;;;;;;1.56;91.51953;99548.93;;;;-76
2023/03/09 18:53:58;;;;;;;;;;;;;;;1.56;91.56348;99564.06;;;;-74
2023/03/09 18:58:59;;;;;;;;;;;;;;;1.55;91.81836;99548.16;;;;-73
2023/03/09 19:02:07;;;;;;;6.1;2.9;;;;;;;;;;;;;-73
2023/03/09 19:04:01;;;;;;;;;;;;;;;1.53;91.74023;99547.61;;;;-73
2023/03/09 19:09:03;;;;;;;;;;;;;;;1.53;91.48145;99540.94;;;;-74
2023/03/09 19:14:01;;;;;;;;;;;;;;;1.54;91.73242;99526.84;;;;-74
2023/03/09 19:19:03;;;;;;;;;;;;;;;1.52;91.84668;99522.06;;;;-74
2023/03/09 19:23:59;;;;;;;;;;;;;;;1.52;91.78223;99513.83;;;;-73
2023/03/09 19:29:00;;;;;;;;;;;;;;;1.52;91.96582;99512.2;;;;-73
2023/03/09 19:32:12;;;;;;;7.7;2.9;;;;;;;;;;;;;-74
2023/03/09 19:34:01;;;;;;;;;;;;;;;1.48;92.16113;99505.55;;;;-74
2023/03/09 19:43:59;;;;;;;;;;;;;;;1.49;92.20605;99471.68;;;;-72
2023/03/09 19:48:59;;;;;;;;;;;;;;;1.48;92.12793;99453.61;;;;-73
2023/03/09 19:53:59;;;;;;;;;;;;;;;1.46;92.33984;99433.97;;;;-73
2023/03/09 19:58:59;;;;;;;;;;;;;;;1.43;92.95996;99419.97;;;;-74
2023/03/09 20:02:05;;;;;;;7.8;3.1;;;;;;;;;;;;;-75
2023/03/09 20:03:59;;;;;;;;;;;;;;;1.45;92.86719;99398.92;;;;-74
2023/03/09 20:08:59;;;;;;;;;;;;;;;1.45;93.05078;99380.94;;;;-73
2023/03/09 20:13:59;;;;;;;;;;;;;;;1.44;93.36133;99373.68;;;;-72
2023/03/09 20:18:58;;;;;;;;;;;;;;;1.43;93.02539;99358.5;;;;-72
2023/03/09 20:23:58;;;;;;;;;;;;;;;1.43;93.30566;99352.22;;;;-72
2023/03/09 20:28:59;;;;;;;;;;;;;;;1.45;92.83496;99338.73;;;;-72
2023/03/09 20:32:07;;;;;;;6;2.7;;;;;;;;;;;;;-73
2023/03/09 20:33:59;;;;;;;;;;;;;;;1.44;93.03809;99325.18;;;;-73
2023/03/09 20:38:58;;;;;;;;;;;;;;;1.44;93.13477;99311.69;;;;-72
2023/03/09 20:44:01;;;;;;;;;;;;;;;1.45;93.17969;99305.91;;;;-72
2023/03/09 20:49:02;;;;;;;;;;;;;;;1.44;93.17773;99309.19;;;;-71
2023/03/09 20:54:02;;;;;;;;;;;;;;;1.45;93.30957;99303.3;;;;-71
2023/03/09 20:58:58;;;;;;;;;;;;;;;1.45;93.69824;99293.22;;;;-72
2023/03/09 21:02:04;;;;;;;6.3;2.4;;;;;;;;;;;;;-71
2023/03/09 21:03:58;;;;;;;;;;;;;;;1.45;93.49316;99291.41;;;;-71
2023/03/09 21:09:07;;;;;;;;;;;;;;;1.46;93.72168;99294.58;;;;-73
2023/03/09 21:14:02;;;;;;;;;;;;;;;1.47;93.66992;99276.7;;;;-71
2023/03/09 21:18:58;;;;;;;;;;;;;;;1.47;93.72168;99273.86;;;;-73
2023/03/09 21:23:58;;;;;;;;;;;;;;;1.48;93.86621;99257.97;;;;-71
2023/03/09 21:29:00;;;;;;;;;;;;;;;1.48;93.69336;99246.91;;;;-71
2023/03/09 21:32:03;;;;;;;5.5;2.7;;;;;;;;;;;;;-72
2023/03/09 21:33:58;;;;;;;;;;;;;;;1.48;93.7168;99242.13;;;;-72
2023/03/09 21:38:58;;;;;;;;;;;;;;;1.49;93.60938;99240.58;;;;-73
2023/03/09 21:43:58;;;;;;;;;;;;;;;1.5;93.4834;99233.58;;;;-71
2023/03/09 21:48:59;;;;;;;;;;;;;;;1.51;93.47266;99221.25;;;;-72
2023/03/09 21:53:58;;;;;;;;;;;;;;;1.51;93.5498;99210.69;;;;-71
2023/03/09 21:59:00;;;;;;;;;;;;;;;1.51;93.75488;99198.59;;;;-73
2023/03/09 22:02:03;;;;;;;5.3;2.4;;;;;;;;;;;;;-72
2023/03/09 22:03:58;;;;;;;;;;;;;;;1.5;93.91309;99186.02;;;;-72
2023/03/09 22:08:59;;;;;;;;;;;;;;;1.52;94.29395;99170.95;;;;-72
2023/03/09 22:13:58;;;;;;;;;;;;;;;1.5;94.1416;99162.02;;;;-71
2023/03/09 22:18:59;;;;;;;;;;;;;;;1.51;93.62598;99157.22;;;;-72
2023/03/09 22:23:58;;;;;;;;;;;;;;;1.52;94.14355;99143.89;;;;-72
2023/03/09 22:28:58;;;;;;;;;;;;;;;1.52;94.10254;99140.67;;;;-72
2023/03/09 22:32:02;;;;;;;7.1;2.8;;;;;;;;;;;;;-71
2023/03/09 22:34:00;;;;;;;;;;;;;;;1.52;94.22949;99116.3;;;;-74
2023/03/09 22:38:58;;;;;;;;;;;;;;;1.53;94.51367;99107.67;;;;-72
2023/03/09 22:44:04;;;;;;;;;;;;;;;1.53;94.53613;99102.72;;;;-72
2023/03/09 22:48:58;;;;;;;;;;;;;;;1.54;94.31152;99101.08;;;;-73
2023/03/09 22:53:59;;;;;;;;;;;;;;;1.54;94.46191;99093.27;;;;-73
2023/03/09 22:58:58;;;;;;;;;;;;;;;1.53;94.71094;99077.2;;;;-72
2023/03/09 23:02:01;;;;;;;7.1;3.1;;;;;;;;;;;;;-72
2023/03/09 23:04:01;;;;;;;;;;;;;;;1.55;94.7207;99071.13;;;;-74
2023/03/09 23:08:58;;;;;;;;;;;;;;;1.55;94.45313;99077.34;;;;-72
2023/03/09 23:13:58;;;;;;;;;;;;;;;1.57;94.64941;99056.99;;;;-71
2023/03/09 23:18:58;;;;;;;;;;;;;;;1.58;94.52441;99051.34;;;;-72
2023/03/09 23:23:58;;;;;;;;;;;;;;;1.57;94.52246;99042.81;;;;-72
2023/03/09 23:28:58;;;;;;;;;;;;;;;1.58;94.83887;99034.04;;;;-71
2023/03/09 23:32:03;;;;;;;8.2;3.6;;;;;;;;;;;;;-72
2023/03/09 23:33:58;;;;;;;;;;;;;;;1.58;95.07422;99022.06;;;;-72
2023/03/09 23:38:58;;;;;;;;;;;;;;;1.59;95.30273;99014.72;;;;-72
2023/03/09 23:43:58;;;;;;;;;;;;;;;1.59;95.24902;99002.52;;;;-72
2023/03/09 23:48:58;;;;;;;;;;;;;;;1.58;95.36523;98996.05;;;;-72
2023/03/09 23:53:58;;;;;;;;;;;;;;;1.59;95.8418;98994.72;;;;-73
2023/03/09 23:58:59;;;;;;;;;;;;;;;1.6;95.67383;98997.08;;;;-72
